Date,TemperatureHighF,TemperatureAvgF,TemperatureLowF,DewpointHighF,DewpointAvgF,DewpointLowF,HumidityHigh,HumidityAvg,HumidityLow,PressureMaxIn,PressureMinIn,WindSpeedMaxMPH,WindSpeedAvgMPH,GustSpeedMaxMPH,PrecipitationSumIn
2013-7-1,87.0,66.5,42.0,-99.9,-99.9,-99.9,0,0,100,0.00,40.00,0,-999,0,0.01
2013-7-2,92.0,65.3,40.0,-99.9,-99.9,-99.9,0,0,100,0.00,40.00,0,-999,0,0.01
2013-7-3,85.0,69.9,46.0,-99.9,-99.9,-99.9,0,0,100,0.00,40.00,0,-999,0,0.00
2013-7-4,82.0,65.9,46.0,-99.9,-99.9,-99.9,0,0,100,0.00,40.00,0,-999,0,0.00
2013-7-5,77.0,62.0,51.0,-99.9,-99.9,-99.9,0,0,100,0.00,40.00,0,-999,0,0.24
2013-7-6,72.0,50.6,41.0,-99.9,-99.9,-99.9,0,0,100,0.00,40.00,0,-999,0,0.31
2013-7-7,77.0,57.2,36.0,-99.9,-99.9,-99.9,0,0,100,0.00,40.00,0,-999,0,0.32
2013-7-8,77.0,58.0,45.0,-99.9,-99.9,-99.9,0,0,100,0.00,40.00,0,-999,0,0.05
2013-7-9,81.0,57.1,39.0,-99.9,-99.9,-99.9,0,0,100,0.00,40.00,0,-999,0,16.20
2013-7-10,85.0,63.2,35.0,-99.9,-99.9,-99.9,0,0,100,0.00,40.00,0,-999,0,24.66
2013-7-11,74.0,55.8,41.0,-99.9,-99.9,-99.9,0,0,100,0.00,40.00,0,-999,0,3.96
2013-7-12,74.0,59.9,43.0,-99.9,-99.9,-99.9,0,0,100,0.00,40.00,0,-999,0,18.45
2013-7-13,72.0,54.2,36.0,-99.9,-99.9,-99.9,0,0,100,0.00,40.00,0,-999,0,0.01
2013-7-14,79.0,59.4,37.0,-99.9,-99.9,-99.9,0,0,100,0.00,40.00,0,-999,0,0.00
2013-7-15,84.0,61.8,36.0,-99.9,-99.9,-99.9,0,0,100,0.00,40.00,0,-999,0,24.64
2013-7-16,77.0,58.6,42.0,-99.9,-99.9,-99.9,0,0,100,0.00,40.00,0,-999,0,0.01
2013-7-17,83.0,65.9,52.0,-99.9,-99.9,-99.9,0,0,100,0.00,40.00,0,-999,0,0.04
2013-7-18,83.0,66.0,43.0,-99.9,-99.9,-99.9,0,0,100,0.00,40.00,0,-999,0,0.01
2013-7-19,85.0,58.9,37.0,-99.9,-99.9,-99.9,0,0,100,0.00,40.00,0,-999,0,11.35
2013-7-20,84.0,58.1,36.0,-99.9,-99.9,-99.9,0,0,100,0.00,40.00,0,-999,0,0.06
2013-7-21,84.0,65.4,35.0,-99.9,-99.9,-99.9,0,0,100,0.00,40.00,0,-999,0,24.46
2013-7-22,84.0,59.5,31.0,-99.9,-99.9,-99.9,0,0,100,0.00,40.00,0,-999,0,0.01
2013-7-23,87.0,65.3,32.0,-99.9,-99.9,-99.9,0,0,100,0.00,40.00,0,-999,0,24.58
2013-7-24,84.0,63.4,38.0,-99.9,-99.9,-99.9,0,0,100,0.00,40.00,0,-999,0,0.26
2013-7-25,84.0,66.1,35.0,-99.9,-99.9,-99.9,0,0,100,0.00,40.00,0,-999,0,0.01
2013-7-26,84.0,64.9,37.0,-99.9,-99.9,-99.9,0,0,100,0.00,40.00,0,-999,0,12.33
2013-7-27,70.0,57.3,46.0,-99.9,-99.9,-99.9,0,0,100,0.00,40.00,0,-999,0,9.07
2013-7-28,74.0,52.3,36.0,-99.9,-99.9,-99.9,0,0,100,0.00,40.00,0,-999,0,0.02
2013-7-29,77.0,51.6,35.0,-99.9,-99.9,-99.9,0,0,100,0.00,40.00,0,-999,0,0.02
2013-7-30,77.0,57.9,42.0,-99.9,-99.9,-99.9,0,0,100,0.00,40.00,0,-999,0,0.01
2013-7-31,78.0,57.5,33.0,-99.9,-99.9,-99.9,0,0,100,0.00,40.00,0,-999,0,0.02